createdAt,value
2023-03-25T00:00:15.751Z,5.97
2023-03-25T00:02:48.447Z,7.70
2023-03-25T00:05:17.328Z,9.03
2023-03-25T00:07:45.398Z,5.70
2023-03-25T00:10:13.701Z,4.30
2023-03-25T00:12:42.968Z,6.37
2023-03-25T00:15:11.744Z,7.93
2023-03-25T00:17:38.868Z,5.30
2023-03-25T00:20:09.844Z,9.87
2023-03-25T00:22:41.022Z,6.20
2023-03-25T00:25:10.001Z,4.20
2023-03-25T00:27:36.927Z,5.93
2023-03-25T00:30:04.513Z,7.13
2023-03-25T00:32:31.420Z,5.80
2023-03-25T00:34:59.841Z,5.63
2023-03-25T00:37:27.276Z,5.07
2023-03-25T00:39:54.127Z,4.00
2023-03-25T00:42:26.477Z,6.37
2023-03-25T00:44:54.192Z,4.73
2023-03-25T00:47:22.181Z,6.00
2023-03-25T00:49:50.060Z,5.53
2023-03-25T00:52:18.323Z,3.90
2023-03-25T00:54:45.913Z,6.17
2023-03-25T00:57:13.331Z,6.90
2023-03-25T00:59:40.222Z,10.53
2023-03-25T01:02:07.237Z,5.20
2023-03-25T01:04:35.305Z,9.00
2023-03-25T01:07:03.413Z,5.47
2023-03-25T01:09:31.255Z,8.50
2023-03-25T01:11:58.043Z,7.40
2023-03-25T01:14:27.729Z,5.33
2023-03-25T01:16:55.096Z,7.77
2023-03-25T01:19:23.330Z,5.13
2023-03-25T01:21:50.319Z,4.67
2023-03-25T01:24:17.465Z,6.37
2023-03-25T01:26:46.056Z,6.30
2023-03-25T01:29:15.456Z,4.63
2023-03-25T01:31:42.473Z,6.43
2023-03-25T01:34:09.306Z,4.73
2023-03-25T01:36:37.495Z,7.50
2023-03-25T01:39:05.748Z,7.00
2023-03-25T01:41:48.687Z,6.07
2023-03-25T01:44:20.051Z,7.07
2023-03-25T01:46:49.867Z,5.57
2023-03-25T01:49:30.103Z,6.83
2023-03-25T01:52:03.005Z,7.87
2023-03-25T01:54:30.894Z,8.77
2023-03-25T01:56:58.149Z,8.03
2023-03-25T01:59:28.503Z,8.40
2023-03-25T02:01:58.313Z,5.00
2023-03-25T02:05:00.169Z,5.77
2023-03-25T02:07:33.509Z,4.33
2023-03-25T02:10:08.501Z,5.27
2023-03-25T02:12:35.389Z,5.27
2023-03-25T02:15:05.256Z,5.73
2023-03-25T02:17:59.829Z,12.00
2023-03-25T02:20:29.651Z,9.93
2023-03-25T02:23:22.066Z,15.33
2023-03-25T02:26:05.369Z,7.67
2023-03-25T02:28:41.271Z,7.77
2023-03-25T02:31:30.180Z,6.67
2023-03-25T02:34:08.847Z,8.93
2023-03-25T02:37:13.299Z,6.73
2023-03-25T02:39:52.713Z,6.47
2023-03-25T02:42:37.652Z,8.00
2023-03-25T02:45:36.951Z,5.30
2023-03-25T02:48:12.502Z,6.20
2023-03-25T02:50:44.163Z,13.13
2023-03-25T02:53:17.130Z,9.57
2023-03-25T02:55:45.217Z,13.63
2023-03-25T02:58:16.762Z,6.83
2023-03-25T03:00:44.534Z,8.87
2023-03-25T03:03:11.778Z,10.13
2023-03-25T03:05:43.813Z,11.43
2023-03-25T03:08:19.149Z,8.80
2023-03-25T03:11:07.442Z,6.33
2023-03-25T03:13:47.231Z,8.07
2023-03-25T03:16:24.840Z,7.27
2023-03-25T03:18:58.737Z,8.17
2023-03-25T03:21:47.449Z,8.13
2023-03-25T03:24:27.710Z,8.27
2023-03-25T03:27:02.685Z,5.90
2023-03-25T03:29:35.757Z,10.60
2023-03-25T03:32:08.972Z,7.00
2023-03-25T03:34:55.005Z,9.80
2023-03-25T03:37:32.493Z,12.80
2023-03-25T03:39:59.444Z,9.67
2023-03-25T03:42:41.441Z,11.17
2023-03-25T03:45:13.941Z,9.53
2023-03-25T03:47:47.645Z,7.30
2023-03-25T03:50:26.096Z,9.27
2023-03-25T03:53:19.451Z,9.40
2023-03-25T03:55:55.013Z,7.93
2023-03-25T03:58:30.020Z,12.60
2023-03-25T04:01:13.912Z,8.90
2023-03-25T04:03:53.398Z,11.80
2023-03-25T04:06:56.894Z,8.60
2023-03-25T04:09:55.152Z,8.05
2023-03-25T04:12:27.994Z,11.47
2023-03-25T04:15:01.644Z,6.00
2023-03-25T04:17:33.137Z,11.70
2023-03-25T04:20:00.455Z,10.98
2023-03-25T04:22:27.524Z,9.43
2023-03-25T04:24:56.159Z,8.20
2023-03-25T04:27:29.918Z,9.95
2023-03-25T04:29:57.789Z,10.35
2023-03-25T04:32:27.847Z,14.77
2023-03-25T04:34:57.869Z,12.30
2023-03-25T04:37:25.730Z,11.40
2023-03-25T04:39:53.961Z,8.13
2023-03-25T04:42:20.795Z,8.43
2023-03-25T04:44:47.582Z,9.70
2023-03-25T04:47:16.439Z,10.00
2023-03-25T04:49:45.201Z,8.32
2023-03-25T04:52:12.131Z,8.53
2023-03-25T04:54:40.159Z,9.35
2023-03-25T04:57:10.336Z,10.67
2023-03-25T04:59:37.225Z,8.27
2023-03-25T05:02:05.903Z,11.27
2023-03-25T05:04:33.388Z,12.10
2023-03-25T05:07:00.178Z,12.20
2023-03-25T05:09:26.991Z,12.23
2023-03-25T05:11:54.103Z,10.30
2023-03-25T05:14:21.693Z,15.13
2023-03-25T05:16:49.045Z,15.07
2023-03-25T05:19:18.907Z,11.98
2023-03-25T05:21:46.403Z,20.43
2023-03-25T05:24:13.889Z,12.88
2023-03-25T05:26:42.184Z,8.85
2023-03-25T05:29:14.330Z,13.82
2023-03-25T05:31:42.536Z,13.90
2023-03-25T05:34:09.367Z,11.00
2023-03-25T05:36:36.168Z,11.15
2023-03-25T05:39:04.748Z,12.30
2023-03-25T05:41:38.813Z,11.00
2023-03-25T05:44:10.525Z,10.23
2023-03-25T05:46:37.306Z,11.67
2023-03-25T05:49:04.214Z,10.57
2023-03-25T05:51:37.576Z,10.13
2023-03-25T05:54:10.960Z,10.50
2023-03-25T05:56:38.864Z,10.13
2023-03-25T05:59:05.795Z,11.10
2023-03-25T06:01:34.347Z,10.57
2023-03-25T06:04:03.151Z,13.50
2023-03-25T06:06:32.367Z,11.23
2023-03-25T06:08:59.559Z,10.57
2023-03-25T06:11:26.319Z,13.83
2023-03-25T06:13:53.177Z,18.80
2023-03-25T06:16:29.981Z,15.30
2023-03-25T06:18:59.963Z,13.23
2023-03-25T06:21:35.069Z,10.33
2023-03-25T06:24:02.498Z,8.77
2023-03-25T06:26:29.578Z,25.83
2023-03-25T06:28:56.422Z,13.27
2023-03-25T06:31:26.737Z,14.90
2023-03-25T06:33:54.878Z,16.53
2023-03-25T06:36:21.959Z,10.37
2023-03-25T06:38:50.400Z,12.43
2023-03-25T06:41:21.877Z,14.50
2023-03-25T06:43:49.553Z,12.70
2023-03-25T06:46:16.966Z,12.87
2023-03-25T06:48:44.053Z,15.23
2023-03-25T06:51:11.080Z,15.90
2023-03-25T06:53:37.906Z,17.53
2023-03-25T06:56:05.049Z,10.23
2023-03-25T06:58:35.209Z,17.13
2023-03-25T07:01:07.067Z,8.57
2023-03-25T07:03:36.379Z,9.73
2023-03-25T07:06:03.769Z,15.63
2023-03-25T07:08:30.754Z,11.00
2023-03-25T07:11:05.258Z,10.63
2023-03-25T07:13:32.021Z,17.23
2023-03-25T07:15:59.599Z,14.30
2023-03-25T07:18:26.638Z,11.43
2023-03-25T07:20:54.677Z,10.43
2023-03-25T07:23:21.469Z,17.43
2023-03-25T07:25:48.274Z,9.83
2023-03-25T07:28:15.506Z,9.33
2023-03-25T07:30:42.315Z,9.10
2023-03-25T07:33:10.133Z,10.30
2023-03-25T07:35:37.193Z,8.87
2023-03-25T07:38:04.070Z,11.43
2023-03-25T07:40:31.068Z,12.33
2023-03-25T07:42:57.936Z,9.20
2023-03-25T07:45:25.471Z,12.37
2023-03-25T07:47:53.353Z,8.50
2023-03-25T07:50:24.921Z,10.67
2023-03-25T07:52:53.839Z,13.10
2023-03-25T07:55:21.053Z,8.80
2023-03-25T07:57:47.834Z,10.23
2023-03-25T08:00:14.799Z,15.33
2023-03-25T08:02:41.947Z,15.53
2023-03-25T08:05:09.462Z,13.53
2023-03-25T08:07:36.387Z,8.80
2023-03-25T08:10:03.706Z,10.13
2023-03-25T08:12:30.632Z,7.87
2023-03-25T08:14:57.571Z,6.27
2023-03-25T08:17:24.438Z,9.30
2023-03-25T08:19:51.242Z,10.43
2023-03-25T08:22:18.045Z,10.50
2023-03-25T08:24:44.799Z,8.13
2023-03-25T08:27:15.058Z,12.70
2023-03-25T08:29:43.737Z,10.67
2023-03-25T08:32:10.769Z,7.07
2023-03-25T08:34:40.012Z,6.37
2023-03-25T08:37:08.091Z,6.10
2023-03-25T08:39:39.769Z,12.27
2023-03-25T08:42:08.264Z,9.27
2023-03-25T08:44:35.730Z,6.97
2023-03-25T08:47:02.564Z,7.30
2023-03-25T08:49:29.463Z,7.53
2023-03-25T08:51:57.998Z,8.90
2023-03-25T08:54:29.233Z,10.33
2023-03-25T08:56:56.097Z,5.73
2023-03-25T08:59:23.048Z,4.67
2023-03-25T09:01:49.966Z,7.17
2023-03-25T09:04:16.877Z,7.27
2023-03-25T09:06:47.924Z,11.07
2023-03-25T09:09:30.564Z,10.13
2023-03-25T09:11:57.322Z,4.97
2023-03-25T09:14:24.073Z,7.43
2023-03-25T09:16:50.936Z,11.83
2023-03-25T09:19:17.760Z,5.37
2023-03-25T09:21:44.481Z,4.93
2023-03-25T09:24:12.647Z,5.80
2023-03-25T09:26:39.948Z,7.17
2023-03-25T09:29:06.769Z,9.87
2023-03-25T09:31:33.690Z,6.13
2023-03-25T09:34:01.135Z,8.20
2023-03-25T09:36:27.940Z,3.13
2023-03-25T09:38:54.690Z,6.57
2023-03-25T09:41:39.372Z,6.10
2023-03-25T09:44:19.021Z,11.23
2023-03-25T09:46:46.129Z,5.10
2023-03-25T09:49:21.528Z,2.60
2023-03-25T09:51:50.961Z,11.37
2023-03-25T09:54:49.537Z,6.87
2023-03-25T09:57:44.034Z,3.27
2023-03-25T10:00:22.600Z,2.97
2023-03-25T10:03:28.651Z,9.90
2023-03-25T10:06:17.802Z,4.70
2023-03-25T10:08:50.461Z,11.10
2023-03-25T10:11:41.179Z,3.27
2023-03-25T10:14:30.556Z,5.07
2023-03-25T10:17:35.476Z,5.83
2023-03-25T10:20:07.167Z,6.43
2023-03-25T10:22:54.183Z,12.30
2023-03-25T10:25:26.811Z,5.73
2023-03-25T10:27:55.882Z,6.53
2023-03-25T10:30:30.401Z,4.10
2023-03-25T10:32:59.254Z,7.27
2023-03-25T10:35:30.053Z,3.97
2023-03-25T10:38:13.807Z,3.93
2023-03-25T10:40:44.825Z,3.20
2023-03-25T10:43:23.886Z,6.00
2023-03-25T10:45:54.846Z,3.33
2023-03-25T10:48:25.668Z,5.90
2023-03-25T10:50:58.675Z,6.33
2023-03-25T10:53:27.693Z,9.63
2023-03-25T10:56:03.821Z,5.73
2023-03-25T10:58:37.284Z,8.90
2023-03-25T11:01:15.501Z,3.23
2023-03-25T11:03:43.966Z,3.93
2023-03-25T11:06:24.355Z,5.70
2023-03-25T11:09:15.426Z,5.20
2023-03-25T11:11:43.483Z,5.20
2023-03-25T11:14:13.874Z,5.63
2023-03-25T11:16:44.214Z,3.87
2023-03-25T11:19:18.615Z,4.40
2023-03-25T11:21:48.872Z,3.77
2023-03-25T11:24:19.331Z,5.07
2023-03-25T11:26:48.662Z,3.40
2023-03-25T11:29:20.498Z,3.13
2023-03-25T11:32:06.830Z,4.80
2023-03-25T11:34:42.139Z,5.00
2023-03-25T11:37:22.413Z,4.50
2023-03-25T11:39:55.650Z,2.80
2023-03-25T11:42:26.077Z,3.23
2023-03-25T11:44:54.929Z,7.43
2023-03-25T11:47:35.184Z,7.53
2023-03-25T11:50:02.998Z,3.87
2023-03-25T11:52:47.148Z,6.13
2023-03-25T11:55:21.589Z,4.77
2023-03-25T11:57:50.740Z,3.90
2023-03-25T12:00:18.375Z,9.33
2023-03-25T12:02:45.378Z,4.37
2023-03-25T12:05:16.577Z,2.60
2023-03-25T12:07:49.377Z,4.60
2023-03-25T12:10:32.054Z,4.10
2023-03-25T12:13:33.034Z,5.80
2023-03-25T12:16:21.075Z,5.73
2023-03-25T12:19:19.946Z,5.80
2023-03-25T12:22:08.664Z,4.10
2023-03-25T12:25:02.977Z,12.27
2023-03-25T12:27:56.499Z,2.70
2023-03-25T12:30:53.929Z,9.60
2023-03-25T12:33:56.288Z,3.87
2023-03-25T12:36:38.992Z,2.83
2023-03-25T12:39:39.534Z,2.40
2023-03-25T12:42:48.645Z,3.23
2023-03-25T12:45:48.943Z,1.73
2023-03-25T12:48:45.174Z,2.10
2023-03-25T12:51:21.282Z,2.87
2023-03-25T12:54:02.614Z,2.70
2023-03-25T12:56:44.136Z,4.30
2023-03-25T12:59:44.617Z,2.27
2023-03-25T13:02:35.389Z,1.63
2023-03-25T13:05:39.203Z,9.33
2023-03-25T13:08:18.734Z,6.53
2023-03-25T13:10:51.254Z,3.50
2023-03-25T13:13:24.314Z,3.63
2023-03-25T13:16:06.373Z,11.40
2023-03-25T13:18:46.226Z,14.40
2023-03-25T13:21:27.640Z,3.13
2023-03-25T13:24:07.270Z,3.03
2023-03-25T13:26:36.214Z,6.63
2023-03-25T13:29:07.048Z,4.30
2023-03-25T13:31:37.997Z,5.07
2023-03-25T13:34:40.101Z,5.97
2023-03-25T13:37:21.982Z,7.43
2023-03-25T13:40:15.073Z,8.40
2023-03-25T13:42:48.972Z,8.60
2023-03-25T13:45:21.565Z,5.80
2023-03-25T13:47:52.946Z,7.03
2023-03-25T13:50:27.393Z,9.80
2023-03-25T13:53:03.462Z,10.63
2023-03-25T13:55:40.841Z,7.07
2023-03-25T13:58:13.168Z,9.23
2023-03-25T14:01:01.963Z,5.13
2023-03-25T14:03:47.716Z,10.23
2023-03-25T14:06:29.605Z,7.50
2023-03-25T14:09:05.462Z,7.10
2023-03-25T14:11:51.436Z,4.93
2023-03-25T14:14:22.453Z,8.00
2023-03-25T14:16:58.921Z,9.93
2023-03-25T14:19:38.477Z,4.57
2023-03-25T14:22:16.042Z,5.83
2023-03-25T14:24:44.990Z,11.23
2023-03-25T14:27:26.514Z,7.30
2023-03-25T14:30:27.596Z,10.43
2023-03-25T14:32:58.842Z,8.47
2023-03-25T14:35:34.719Z,5.03
2023-03-25T14:38:07.668Z,8.93
2023-03-25T14:43:19.707Z,6.27
2023-03-25T14:46:04.596Z,5.83
2023-03-25T14:48:34.415Z,3.80
2023-03-25T14:51:42.625Z,8.07
2023-03-25T14:54:29.687Z,2.97
2023-03-25T14:57:15.990Z,3.17
2023-03-25T14:59:51.952Z,4.80
2023-03-25T15:02:22.880Z,3.73
2023-03-25T15:05:12.117Z,2.83
2023-03-25T15:07:54.068Z,3.77
2023-03-25T15:10:25.535Z,1.33
2023-03-25T15:13:21.680Z,0.80
2023-03-25T15:15:50.402Z,2.40
2023-03-25T15:18:35.789Z,0.63
2023-03-25T15:21:09.292Z,0.67
2023-03-25T15:24:03.752Z,2.20
2023-03-25T15:26:50.372Z,0.87
2023-03-25T15:29:54.673Z,0.80
2023-03-25T15:32:24.582Z,0.67
2023-03-25T15:35:25.493Z,0.77
2023-03-25T15:37:58.521Z,0.60
2023-03-25T15:41:04.581Z,0.60
2023-03-25T15:44:07.867Z,1.07
2023-03-25T15:46:37.433Z,0.90
2023-03-25T15:49:25.441Z,0.67
2023-03-25T15:52:19.771Z,1.73
2023-03-25T15:54:52.182Z,1.50
2023-03-25T15:57:22.988Z,2.10
2023-03-25T16:00:25.514Z,0.70
2023-03-25T16:03:00.001Z,2.13
2023-03-25T16:05:27.615Z,3.27
2023-03-25T16:07:56.471Z,0.67
2023-03-25T16:10:36.479Z,2.20
2023-03-25T16:13:06.523Z,1.10
2023-03-25T16:15:36.165Z,0.60
2023-03-25T16:18:07.160Z,2.13
2023-03-25T16:20:36.482Z,1.17
2023-03-25T16:23:06.972Z,1.30
2023-03-25T16:25:40.097Z,0.90
2023-03-25T16:28:28.783Z,2.00
2023-03-25T16:30:56.156Z,1.27
2023-03-25T16:33:28.448Z,2.40
2023-03-25T16:36:04.805Z,1.00
2023-03-25T16:38:32.663Z,1.83
2023-03-25T16:41:02.233Z,1.50
2023-03-25T16:43:30.789Z,1.73
2023-03-25T16:46:00.470Z,1.73
2023-03-25T16:48:33.251Z,1.37
2023-03-25T16:51:08.233Z,1.83
2023-03-25T16:53:39.990Z,5.60
2023-03-25T16:56:10.012Z,1.53
2023-03-25T16:58:57.991Z,3.70
2023-03-25T17:01:25.557Z,1.80
2023-03-25T17:04:05.344Z,2.27
2023-03-25T17:06:41.322Z,2.30
2023-03-25T17:09:15.418Z,1.80
2023-03-25T17:11:43.774Z,5.80
2023-03-25T17:14:38.187Z,2.40
2023-03-25T17:17:33.754Z,3.97
2023-03-25T17:20:09.045Z,4.13
2023-03-25T17:22:39.769Z,3.33
2023-03-25T17:25:27.062Z,3.17
2023-03-25T17:28:00.923Z,4.90
2023-03-25T17:30:42.509Z,12.73
2023-03-25T17:33:14.178Z,4.70
2023-03-25T17:35:43.069Z,4.37
2023-03-25T17:38:21.243Z,13.00
2023-03-25T17:40:59.106Z,3.27
2023-03-25T17:43:27.687Z,8.10
2023-03-25T17:45:54.553Z,4.67
2023-03-25T17:48:21.475Z,6.40
2023-03-25T17:50:56.995Z,7.33
2023-03-25T17:53:24.493Z,5.03
2023-03-25T17:55:52.056Z,4.40
2023-03-25T17:58:20.803Z,6.00
2023-03-25T18:00:49.284Z,3.10
2023-03-25T18:03:19.253Z,5.50
2023-03-25T18:05:51.028Z,5.03
2023-03-25T18:08:18.152Z,6.73
2023-03-25T18:10:45.522Z,4.90
2023-03-25T18:13:12.594Z,8.03
2023-03-25T18:15:40.607Z,5.70
2023-03-25T18:18:13.935Z,7.50
2023-03-25T18:20:40.738Z,5.90
2023-03-25T18:23:07.604Z,5.23
2023-03-25T18:25:34.473Z,4.70
2023-03-25T18:28:01.403Z,3.53
2023-03-25T18:30:34.411Z,5.63
2023-03-25T18:33:01.271Z,6.10
2023-03-25T18:35:28.171Z,3.67
2023-03-25T18:37:56.040Z,3.80
2023-03-25T18:40:27.288Z,6.00
2023-03-25T18:42:55.418Z,4.73
2023-03-25T18:45:24.412Z,5.20
2023-03-25T18:47:51.787Z,3.17
2023-03-25T18:50:23.436Z,5.50
2023-03-25T18:52:50.311Z,5.17
2023-03-25T18:55:17.368Z,4.33
2023-03-25T18:57:44.453Z,4.87
2023-03-25T19:00:19.522Z,7.50
2023-03-25T19:02:46.499Z,3.20
2023-03-25T19:05:13.537Z,3.80
2023-03-25T19:07:41.057Z,3.47
2023-03-25T19:10:11.975Z,3.47
2023-03-25T19:12:38.729Z,2.70
2023-03-25T19:15:05.905Z,4.17
2023-03-25T19:17:32.876Z,2.60
2023-03-25T19:19:59.677Z,3.37
2023-03-25T19:22:26.451Z,5.17
2023-03-25T19:24:53.293Z,3.13
2023-03-25T19:27:20.242Z,5.90
2023-03-25T19:29:47.035Z,4.80
2023-03-25T19:32:13.797Z,2.93
2023-03-25T19:34:40.564Z,2.43
2023-03-25T19:37:07.785Z,2.23
2023-03-25T19:39:34.616Z,2.70
2023-03-25T19:42:02.844Z,4.03
2023-03-25T19:44:29.924Z,2.70
2023-03-25T19:46:56.690Z,3.57
2023-03-25T19:49:38.743Z,2.50
2023-03-25T19:52:07.830Z,3.97
2023-03-25T19:54:34.633Z,2.88
2023-03-25T19:57:01.545Z,2.20
2023-03-25T19:59:28.394Z,2.40
2023-03-25T20:01:55.247Z,2.20
2023-03-25T20:04:22.136Z,2.70
2023-03-25T20:06:48.984Z,2.87
2023-03-25T20:09:15.786Z,2.73
2023-03-25T20:11:42.732Z,1.80
2023-03-25T20:14:09.470Z,2.00
2023-03-25T20:16:36.378Z,2.70
2023-03-25T20:19:04.127Z,4.37
2023-03-25T20:21:31.093Z,3.10
2023-03-25T20:23:59.047Z,4.30
2023-03-25T20:26:25.998Z,2.30
2023-03-25T20:28:52.828Z,3.87
2023-03-25T20:31:22.690Z,5.53
2023-03-25T20:33:50.405Z,3.20
2023-03-25T20:36:21.668Z,3.00
2023-03-25T20:38:57.146Z,3.17
2023-03-25T20:41:25.588Z,5.37
2023-03-25T20:43:52.352Z,6.53
2023-03-25T20:46:23.829Z,4.83
2023-03-25T20:48:50.854Z,6.30
2023-03-25T20:51:17.915Z,7.03
2023-03-25T20:53:45.180Z,5.15
2023-03-25T20:56:12.046Z,6.95
2023-03-25T20:58:38.976Z,5.95
2023-03-25T21:01:05.770Z,8.33
2023-03-25T21:03:32.718Z,5.43
2023-03-25T21:06:07.314Z,4.63
2023-03-25T21:08:37.441Z,6.40
2023-03-25T21:11:06.826Z,9.90
2023-03-25T21:13:34.167Z,6.53
2023-03-25T21:16:02.161Z,6.70
2023-03-25T21:18:29.324Z,6.22
2023-03-25T21:20:58.282Z,5.70
2023-03-25T21:23:31.884Z,7.05
2023-03-25T21:26:00.836Z,5.87
2023-03-25T21:28:29.567Z,5.88
2023-03-25T21:31:04.899Z,6.15
2023-03-25T21:33:37.392Z,8.57
2023-03-25T21:36:06.412Z,9.83
2023-03-25T21:38:34.218Z,10.30
2023-03-25T21:41:03.049Z,7.72
2023-03-25T21:43:31.396Z,9.65
2023-03-25T21:45:58.355Z,11.05
2023-03-25T21:48:33.227Z,8.90
2023-03-25T21:51:01.537Z,11.55
2023-03-25T21:53:32.773Z,12.35
2023-03-25T21:56:04.483Z,10.10
2023-03-25T21:58:36.317Z,8.38
2023-03-25T22:01:05.626Z,11.48
2023-03-25T22:03:37.226Z,11.52
2023-03-25T22:06:16.631Z,11.10
2023-03-25T22:08:43.967Z,10.80
2023-03-25T22:11:14.762Z,13.35
2023-03-25T22:13:42.646Z,10.38
2023-03-25T22:16:11.757Z,10.73
2023-03-25T22:18:39.235Z,10.68
2023-03-25T22:21:13.616Z,14.90
2023-03-25T22:23:41.607Z,13.95
2023-03-25T22:26:11.019Z,9.93
2023-03-25T22:28:39.031Z,11.70
2023-03-25T22:31:18.777Z,10.70
2023-03-25T22:33:49.153Z,10.88
2023-03-25T22:36:16.810Z,10.77
2023-03-25T22:38:46.116Z,10.57
2023-03-25T22:41:16.635Z,11.00
2023-03-25T22:55:07.832Z,14.60
2023-03-25T22:57:35.785Z,11.35
2023-03-25T23:00:04.735Z,11.43
2023-03-25T23:02:31.608Z,9.40
2023-03-25T23:04:58.507Z,7.43
2023-03-25T23:07:26.457Z,10.93
2023-03-25T23:09:53.200Z,9.30
2023-03-25T23:12:25.372Z,5.68
2023-03-25T23:14:55.723Z,9.07
2023-03-25T23:17:24.613Z,6.70
2023-03-25T23:19:52.490Z,10.93
2023-03-25T23:22:19.907Z,7.57
2023-03-25T23:24:46.921Z,9.00
2023-03-25T23:27:14.102Z,10.25
2023-03-25T23:29:41.703Z,8.30
2023-03-25T23:32:09.540Z,7.87
2023-03-25T23:34:36.674Z,6.78
2023-03-25T23:37:04.277Z,10.25
2023-03-25T23:39:31.108Z,7.55
2023-03-25T23:41:58.133Z,7.87
2023-03-25T23:44:25.072Z,10.05
2023-03-25T23:46:51.951Z,8.35
2023-03-25T23:49:20.270Z,10.18
2023-03-25T23:51:47.558Z,8.18
2023-03-25T23:54:15.796Z,7.20
2023-03-25T23:56:43.475Z,8.23
2023-03-25T23:59:12.070Z,4.87
